createdAt,value
2017-05-05T00:00:53.052Z,11.23
2017-05-05T00:01:53.052Z,11.21
2017-05-05T00:02:53.322Z,11.08
2017-05-05T00:03:53.314Z,11.17
2017-05-05T00:04:52.979Z,11.17
2017-05-05T00:05:53.251Z,11.18
2017-05-05T00:06:53.254Z,11.17
2017-05-05T00:07:52.618Z,11.18
2017-05-05T00:08:53.227Z,11.15
2017-05-05T00:09:52.883Z,11.05
2017-05-05T00:10:53.240Z,11.02
2017-05-05T00:11:52.832Z,11.05
2017-05-05T00:12:53.200Z,11.03
2017-05-05T00:13:52.822Z,11.1
2017-05-05T00:14:53.085Z,11.03
2017-05-05T00:15:52.751Z,11
2017-05-05T00:16:53.042Z,11.02
2017-05-05T00:17:53.031Z,10.95
2017-05-05T00:18:52.998Z,10.98
2017-05-05T00:19:52.680Z,11.02
2017-05-05T00:20:52.655Z,10.98
2017-05-05T00:21:52.944Z,11.08
2017-05-05T00:22:52.628Z,11.08
2017-05-05T00:23:52.608Z,10.93
2017-05-05T00:24:52.893Z,11.05
2017-05-05T00:25:52.548Z,10.89
2017-05-05T00:26:52.853Z,10.89
2017-05-05T00:27:52.848Z,10.85
2017-05-05T00:28:52.538Z,10.92
2017-05-05T00:29:52.784Z,10.98
2017-05-05T00:30:52.453Z,10.96
2017-05-05T00:31:52.433Z,11.06
2017-05-05T00:32:52.713Z,11
2017-05-05T00:33:52.083Z,11.11
2017-05-05T00:34:52.703Z,11
2017-05-05T00:35:52.349Z,11.03
2017-05-05T00:36:52.641Z,11.02
2017-05-05T00:37:52.612Z,11
2017-05-05T00:38:52.291Z,10.98
2017-05-05T00:39:52.272Z,10.89
2017-05-05T00:40:52.559Z,10.9
2017-05-05T00:41:52.543Z,10.85
2017-05-05T00:42:52.518Z,10.99
2017-05-05T00:43:52.493Z,10.98
2017-05-05T00:44:51.902Z,10.85
2017-05-05T00:45:52.453Z,10.95
2017-05-05T00:46:52.494Z,10.93
2017-05-05T00:47:52.102Z,10.9
2017-05-05T00:48:52.091Z,10.98
2017-05-05T00:49:52.093Z,10.93
2017-05-05T00:50:52.092Z,11.02
2017-05-05T00:51:52.035Z,10.96
2017-05-05T00:52:52.022Z,10.98
2017-05-05T00:53:51.994Z,11.02
2017-05-05T00:54:51.723Z,11
2017-05-05T00:55:51.943Z,10.96
2017-05-05T00:56:52.241Z,11
2017-05-05T00:57:52.334Z,11
2017-05-05T00:58:51.883Z,10.93
2017-05-05T00:59:51.872Z,10.98
2017-05-05T01:00:52.166Z,11
2017-05-05T01:01:51.626Z,11.02
2017-05-05T01:02:52.162Z,10.99
2017-05-05T01:03:52.091Z,10.93
2017-05-05T01:04:51.773Z,10.87
2017-05-05T01:05:52.054Z,10.87
2017-05-05T01:06:52.092Z,10.9
2017-05-05T01:07:52.057Z,10.87
2017-05-05T01:08:51.373Z,10.9
2017-05-05T01:09:51.979Z,10.98
2017-05-05T01:10:51.646Z,10.96
2017-05-05T01:11:51.649Z,11
2017-05-05T01:12:51.998Z,11.03
2017-05-05T01:13:51.612Z,11.02
2017-05-05T01:14:51.919Z,11.02
2017-05-05T01:15:51.862Z,11
2017-05-05T01:16:51.512Z,11.03
2017-05-05T01:17:51.564Z,11.02
2017-05-05T01:18:51.493Z,11.02
2017-05-05T01:19:51.808Z,11.06
2017-05-05T01:20:51.780Z,10.9
2017-05-05T01:21:51.763Z,10.98
2017-05-05T01:22:51.720Z,10.93
2017-05-05T01:23:51.725Z,10.98
2017-05-05T01:24:51.336Z,11
2017-05-05T01:25:51.323Z,10.93
2017-05-05T01:26:51.313Z,10.93
2017-05-05T01:27:51.600Z,11.03
2017-05-05T01:28:51.631Z,11.03
2017-05-05T01:29:51.240Z,11
2017-05-05T01:30:51.221Z,11
2017-05-05T01:31:50.892Z,10.99
2017-05-05T01:32:51.193Z,11.03
2017-05-05T01:33:51.473Z,11.03
2017-05-05T01:34:51.551Z,11.02
2017-05-05T01:35:50.813Z,11
2017-05-05T01:36:51.404Z,11.03
2017-05-05T01:37:51.084Z,11.02
2017-05-05T01:38:50.754Z,10.96
2017-05-05T01:39:51.046Z,11
2017-05-05T01:40:51.011Z,10.89
2017-05-05T01:41:50.703Z,10.87
2017-05-05T01:42:50.974Z,10.93
2017-05-05T01:43:51.258Z,10.93
2017-05-05T01:44:50.953Z,10.93
2017-05-05T01:45:50.912Z,10.96
2017-05-05T01:46:50.592Z,10.93
2017-05-05T01:47:51.182Z,10.99
2017-05-05T01:48:50.859Z,10.9
2017-05-05T01:49:51.144Z,10.9
2017-05-05T01:50:50.832Z,10.85
2017-05-05T01:51:51.102Z,10.82
2017-05-05T01:52:50.785Z,10.8
2017-05-05T01:53:51.053Z,10.69
2017-05-05T01:54:50.431Z,10.75
2017-05-05T01:55:50.731Z,10.84
2017-05-05T01:56:50.693Z,10.8
2017-05-05T01:57:50.363Z,10.85
2017-05-05T01:58:50.958Z,10.93
2017-05-05T01:59:50.646Z,10.85
2017-05-05T02:00:50.650Z,10.85
2017-05-05T02:01:50.283Z,10.85
2017-05-05T02:02:50.629Z,10.77
2017-05-05T02:03:50.552Z,10.77
2017-05-05T02:04:50.865Z,10.85
2017-05-05T02:05:50.820Z,10.82
2017-05-05T02:06:50.801Z,10.87
2017-05-05T02:07:50.475Z,10.96
2017-05-05T02:08:50.773Z,10.85
2017-05-05T02:09:50.443Z,10.82
2017-05-05T02:10:50.769Z,10.9
2017-05-05T02:11:50.693Z,10.85
2017-05-05T02:12:50.700Z,10.81
2017-05-05T02:13:50.659Z,10.69
2017-05-05T02:14:50.643Z,10.56
2017-05-05T02:15:50.669Z,10.67
2017-05-05T02:16:50.285Z,10.67
2017-05-05T02:17:50.576Z,10.66
2017-05-05T02:18:50.256Z,10.78
2017-05-05T02:19:50.536Z,10.8
2017-05-05T02:20:50.612Z,10.82
2017-05-05T02:21:50.501Z,10.84
2017-05-05T02:22:50.577Z,10.84
2017-05-05T02:23:50.572Z,10.9
2017-05-05T02:24:50.480Z,10.77
2017-05-05T02:25:50.164Z,10.82
2017-05-05T02:26:50.083Z,10.82
2017-05-05T02:27:50.111Z,10.81
2017-05-05T02:28:50.360Z,10.93
2017-05-05T02:29:50.113Z,10.89
2017-05-05T02:30:49.994Z,10.85
2017-05-05T02:31:49.983Z,10.82
2017-05-05T02:32:50.042Z,10.92
2017-05-05T02:33:49.946Z,10.89
2017-05-05T02:34:50.241Z,10.89
2017-05-05T02:35:50.221Z,10.89
2017-05-05T02:36:50.182Z,10.87
2017-05-05T02:37:50.201Z,10.85
2017-05-05T02:38:49.931Z,10.78
2017-05-05T02:39:50.245Z,10.69
2017-05-05T02:40:49.802Z,10.64
2017-05-05T02:41:49.883Z,10.66
2017-05-05T02:42:49.792Z,10.74
2017-05-05T02:43:49.752Z,10.81
2017-05-05T02:44:49.708Z,10.84
2017-05-05T02:45:49.773Z,10.82
2017-05-05T02:46:49.671Z,10.82
2017-05-05T02:47:49.785Z,10.81
2017-05-05T02:48:49.952Z,10.82
2017-05-05T02:49:49.293Z,10.78
2017-05-05T02:50:49.585Z,10.87
2017-05-05T02:51:49.286Z,10.8
2017-05-05T02:52:49.893Z,10.85
2017-05-05T02:53:49.922Z,10.87
2017-05-05T02:54:49.504Z,10.92
2017-05-05T02:55:49.893Z,10.75
2017-05-05T02:56:49.478Z,10.82
2017-05-05T02:57:49.752Z,10.85
2017-05-05T02:58:49.433Z,10.74
2017-05-05T02:59:49.843Z,10.78
2017-05-05T03:00:49.393Z,10.77
2017-05-05T03:01:49.785Z,10.82
2017-05-05T03:02:49.334Z,10.75
2017-05-05T03:03:49.644Z,10.71
2017-05-05T03:04:49.305Z,10.67
2017-05-05T03:05:49.583Z,10.67
2017-05-05T03:06:49.257Z,10.66
2017-05-05T03:07:49.314Z,10.66
2017-05-05T03:08:49.526Z,10.74
2017-05-05T03:09:49.538Z,10.74
2017-05-05T03:10:49.482Z,10.74
2017-05-05T03:11:49.154Z,10.82
2017-05-05T03:12:49.136Z,10.82
2017-05-05T03:13:49.133Z,10.8
2017-05-05T03:14:49.102Z,10.82
2017-05-05T03:15:49.380Z,10.87
2017-05-05T03:16:49.355Z,10.78
2017-05-05T03:17:49.035Z,10.8
2017-05-05T03:18:49.309Z,10.75
2017-05-05T03:19:48.990Z,10.66
2017-05-05T03:20:48.971Z,10.72
2017-05-05T03:21:48.645Z,10.78
2017-05-05T03:22:48.922Z,10.69
2017-05-05T03:23:49.225Z,10.71
2017-05-05T03:24:49.193Z,10.72
2017-05-05T03:25:48.862Z,10.69
2017-05-05T03:26:48.559Z,10.74
2017-05-05T03:27:48.515Z,10.6
2017-05-05T03:28:48.812Z,10.74
2017-05-05T03:29:48.782Z,10.66
2017-05-05T03:30:49.072Z,10.69
2017-05-05T03:31:48.443Z,10.81
2017-05-05T03:32:48.728Z,10.74
2017-05-05T03:33:48.404Z,10.74
2017-05-05T03:34:49.007Z,10.63
2017-05-05T03:35:48.964Z,10.71
2017-05-05T03:36:48.694Z,10.63
2017-05-05T03:37:48.319Z,10.64
2017-05-05T03:38:48.604Z,10.59
2017-05-05T03:39:48.885Z,10.66
2017-05-05T03:40:48.556Z,10.62
2017-05-05T03:41:48.535Z,10.69
2017-05-05T03:42:48.522Z,10.63
2017-05-05T03:43:48.820Z,10.74
2017-05-05T03:44:48.785Z,10.71
2017-05-05T03:45:48.771Z,10.69
2017-05-05T03:46:48.431Z,10.74
2017-05-05T03:47:48.422Z,10.67
2017-05-05T03:48:48.704Z,10.67
2017-05-05T03:49:48.385Z,10.64
2017-05-05T03:50:48.659Z,10.63
2017-05-05T03:51:48.646Z,10.69
2017-05-05T03:52:48.628Z,10.57
2017-05-05T03:53:48.612Z,10.63
2017-05-05T03:54:48.572Z,10.63
2017-05-05T03:55:48.556Z,10.67
2017-05-05T03:56:48.232Z,10.66
2017-05-05T03:57:48.517Z,10.69
2017-05-05T03:58:48.185Z,10.66
2017-05-05T03:59:48.472Z,10.67
2017-05-05T04:00:48.455Z,10.66
2017-05-05T04:01:48.187Z,10.74
2017-05-05T04:02:48.406Z,10.69
2017-05-05T04:03:48.100Z,10.64
2017-05-05T04:04:48.370Z,10.6
2017-05-05T04:05:48.344Z,10.6
2017-05-05T04:06:48.328Z,10.66
2017-05-05T04:07:47.702Z,10.66
2017-05-05T04:08:48.054Z,10.59
2017-05-05T04:09:47.653Z,10.6
2017-05-05T04:10:48.254Z,10.53
2017-05-05T04:11:48.235Z,10.53
2017-05-05T04:12:47.914Z,10.57
2017-05-05T04:13:48.203Z,10.57
2017-05-05T04:14:48.173Z,10.67
2017-05-05T04:15:47.844Z,10.67
2017-05-05T04:16:48.121Z,10.66
2017-05-05T04:17:48.114Z,10.67
2017-05-05T04:18:48.108Z,10.64
2017-05-05T04:19:48.105Z,10.69
2017-05-05T04:20:47.834Z,10.77
2017-05-05T04:21:48.048Z,10.77
2017-05-05T04:22:47.792Z,10.77
2017-05-05T04:23:47.982Z,10.72
2017-05-05T04:24:47.963Z,10.74
2017-05-05T04:25:47.644Z,10.75
2017-05-05T04:26:47.614Z,10.75
2017-05-05T04:27:47.925Z,10.74
2017-05-05T04:28:47.600Z,10.8
2017-05-05T04:29:47.853Z,10.77
2017-05-05T04:30:47.866Z,10.77
2017-05-05T04:31:47.844Z,10.89
2017-05-05T04:32:47.802Z,10.87
2017-05-05T04:33:47.792Z,10.74
2017-05-05T04:34:47.764Z,10.75
2017-05-05T04:35:47.739Z,10.69
2017-05-05T04:36:47.714Z,10.72
2017-05-05T04:37:47.714Z,10.69
2017-05-05T04:38:47.362Z,10.66
2017-05-05T04:39:47.659Z,10.69
2017-05-05T04:40:47.348Z,10.72
2017-05-05T04:41:47.392Z,10.67
2017-05-05T04:42:47.595Z,10.67
2017-05-05T04:43:47.285Z,10.66
2017-05-05T04:44:47.243Z,10.64
2017-05-05T04:45:47.551Z,10.74
2017-05-05T04:46:47.523Z,10.72
2017-05-05T04:47:47.497Z,10.72
2017-05-05T04:48:47.172Z,10.69
2017-05-05T04:49:47.152Z,10.78
2017-05-05T04:50:47.413Z,10.8
2017-05-05T04:51:47.125Z,10.72
2017-05-05T04:52:47.406Z,10.69
2017-05-05T04:53:47.071Z,10.69
2017-05-05T04:54:47.342Z,10.71
2017-05-05T04:55:47.345Z,10.8
2017-05-05T04:56:46.999Z,10.81
2017-05-05T04:57:47.285Z,10.84
2017-05-05T04:58:47.271Z,10.81
2017-05-05T04:59:46.631Z,10.66
2017-05-05T05:00:47.231Z,10.64
2017-05-05T05:01:47.202Z,10.72
2017-05-05T05:02:47.201Z,10.64
2017-05-05T05:03:46.842Z,10.75
2017-05-05T05:04:47.132Z,10.75
2017-05-05T05:05:47.132Z,10.8
2017-05-05T05:06:47.108Z,10.69
2017-05-05T05:07:46.784Z,10.63
2017-05-05T05:08:46.452Z,10.63
2017-05-05T05:09:46.732Z,10.53
2017-05-05T05:10:47.017Z,10.64
2017-05-05T05:11:46.993Z,10.66
2017-05-05T05:12:46.976Z,10.67
2017-05-05T05:13:46.644Z,10.69
2017-05-05T05:14:46.628Z,10.63
2017-05-05T05:15:46.601Z,10.69
2017-05-05T05:16:46.905Z,10.59
2017-05-05T05:17:46.572Z,10.71
2017-05-05T05:18:46.589Z,10.77
2017-05-05T05:19:46.862Z,10.78
2017-05-05T05:20:46.946Z,10.75
2017-05-05T05:21:46.822Z,10.84
2017-05-05T05:22:46.854Z,10.84
2017-05-05T05:23:46.452Z,10.82
2017-05-05T05:24:46.732Z,10.85
2017-05-05T05:25:46.442Z,10.84
2017-05-05T05:26:46.683Z,10.84
2017-05-05T05:27:46.062Z,10.89
2017-05-05T05:28:46.642Z,10.82
2017-05-05T05:29:46.323Z,10.85
2017-05-05T05:30:46.043Z,10.77
2017-05-05T05:31:45.969Z,10.81
2017-05-05T05:32:46.250Z,10.9
2017-05-05T05:33:46.541Z,10.89
2017-05-05T05:34:46.217Z,10.92
2017-05-05T05:35:46.191Z,10.87
2017-05-05T05:36:46.482Z,10.85
2017-05-05T05:37:46.153Z,10.93
2017-05-05T05:38:46.138Z,10.9
2017-05-05T05:39:46.422Z,10.87
2017-05-05T05:40:46.103Z,10.85
2017-05-05T05:41:46.073Z,10.85
2017-05-05T05:42:46.382Z,10.78
2017-05-05T05:43:46.053Z,10.8
2017-05-05T05:44:46.020Z,10.74
2017-05-05T05:45:46.344Z,10.78
2017-05-05T05:46:45.972Z,10.77
2017-05-05T05:47:45.963Z,10.81
2017-05-05T05:48:45.924Z,10.81
2017-05-05T05:49:45.906Z,10.78
2017-05-05T05:50:46.192Z,10.67
2017-05-05T05:51:45.857Z,10.66
2017-05-05T05:52:46.151Z,10.74
2017-05-05T05:53:46.128Z,10.77
2017-05-05T05:54:45.812Z,10.78
2017-05-05T05:55:46.093Z,10.75
2017-05-05T05:56:45.780Z,10.87
2017-05-05T05:57:46.055Z,10.81
2017-05-05T05:58:45.739Z,10.89
2017-05-05T05:59:46.255Z,10.9
2017-05-05T06:00:45.702Z,10.78
2017-05-05T06:01:45.672Z,10.72
2017-05-05T06:02:45.644Z,10.67
2017-05-05T06:03:45.951Z,10.56
2017-05-05T06:04:45.991Z,10.63
2017-05-05T06:05:45.899Z,10.66
2017-05-05T06:06:45.574Z,10.71
2017-05-05T06:07:45.858Z,10.59
2017-05-05T06:08:45.832Z,10.56
2017-05-05T06:09:45.804Z,10.56
2017-05-05T06:10:45.802Z,10.56
2017-05-05T06:11:45.467Z,10.64
2017-05-05T06:12:45.761Z,10.64
2017-05-05T06:13:45.788Z,10.63
2017-05-05T06:14:45.711Z,10.69
2017-05-05T06:15:45.383Z,10.81
2017-05-05T06:16:45.685Z,10.82
2017-05-05T06:17:45.711Z,10.82
2017-05-05T06:18:45.322Z,10.69
2017-05-05T06:19:45.294Z,10.67
2017-05-05T06:20:45.574Z,10.69
2017-05-05T06:21:45.583Z,10.69
2017-05-05T06:22:45.236Z,10.81
2017-05-05T06:23:45.233Z,10.81
2017-05-05T06:24:45.193Z,10.8
2017-05-05T06:25:45.510Z,10.78
2017-05-05T06:26:45.470Z,10.78
2017-05-05T06:27:45.134Z,10.77
2017-05-05T06:28:45.412Z,10.8
2017-05-05T06:29:45.390Z,10.67
2017-05-05T06:30:45.096Z,10.75
2017-05-05T06:31:45.412Z,10.8
2017-05-05T06:32:45.354Z,10.64
2017-05-05T06:33:45.322Z,10.57
2017-05-05T06:34:45.293Z,10.56
2017-05-05T06:35:45.282Z,10.64
2017-05-05T06:36:45.272Z,10.62
2017-05-05T06:37:44.932Z,10.71
2017-05-05T06:38:44.920Z,10.74
2017-05-05T06:39:44.889Z,10.77
2017-05-05T06:40:44.861Z,10.8
2017-05-05T06:41:44.543Z,10.82
2017-05-05T06:42:44.825Z,10.92
2017-05-05T06:43:44.873Z,10.85
2017-05-05T06:44:44.778Z,10.95
2017-05-05T06:45:45.124Z,10.9
2017-05-05T06:46:44.742Z,10.81
2017-05-05T06:47:44.730Z,10.84
2017-05-05T06:48:44.698Z,10.82
2017-05-05T06:49:45.003Z,10.82
2017-05-05T06:50:44.671Z,10.8
2017-05-05T06:51:45.001Z,10.74
2017-05-05T06:52:44.931Z,10.8
2017-05-05T06:53:44.655Z,10.71
2017-05-05T06:54:44.891Z,10.71
2017-05-05T06:55:44.615Z,10.81
2017-05-05T06:56:44.851Z,10.82
2017-05-05T06:57:44.514Z,10.89
2017-05-05T06:58:44.815Z,10.87
2017-05-05T06:59:44.803Z,10.99
2017-05-05T07:00:44.451Z,10.93
2017-05-05T07:01:44.813Z,11.02
2017-05-05T07:02:44.425Z,10.98
2017-05-05T07:03:44.707Z,11.03
2017-05-05T07:04:44.701Z,10.95
2017-05-05T07:05:44.712Z,10.93
2017-05-05T07:06:44.691Z,10.95
2017-05-05T07:07:44.662Z,10.87
2017-05-05T07:08:44.293Z,10.87
2017-05-05T07:09:44.291Z,10.87
2017-05-05T07:10:44.583Z,10.92
2017-05-05T07:11:44.532Z,10.89
2017-05-05T07:12:44.532Z,10.92
2017-05-05T07:13:44.289Z,11.02
2017-05-05T07:14:44.532Z,11.03
2017-05-05T07:15:44.474Z,10.95
2017-05-05T07:16:44.199Z,10.92
2017-05-05T07:17:44.134Z,11
2017-05-05T07:18:44.451Z,10.92
2017-05-05T07:19:44.082Z,10.85
2017-05-05T07:20:44.401Z,10.96
2017-05-05T07:21:44.382Z,10.81
2017-05-05T07:22:44.336Z,10.77
2017-05-05T07:23:43.683Z,10.8
2017-05-05T07:24:44.324Z,10.93
2017-05-05T07:25:44.244Z,10.95
2017-05-05T07:26:43.940Z,11.03
2017-05-05T07:27:44.272Z,11
2017-05-05T07:28:44.219Z,11.02
2017-05-05T07:29:44.172Z,10.96
2017-05-05T07:30:44.193Z,10.99
2017-05-05T07:31:43.840Z,11.08
2017-05-05T07:32:44.122Z,11.03
2017-05-05T07:33:43.795Z,10.96
2017-05-05T07:34:43.792Z,11.11
2017-05-05T07:35:43.740Z,11.1
2017-05-05T07:36:43.734Z,11.03
2017-05-05T07:37:43.404Z,11.11
2017-05-05T07:38:43.685Z,11.03
2017-05-05T07:39:44.028Z,11.05
2017-05-05T07:40:44.051Z,11.18
2017-05-05T07:41:43.324Z,11.08
2017-05-05T07:42:43.957Z,11.13
2017-05-05T07:43:43.572Z,11.1
2017-05-05T07:44:43.602Z,11.1
2017-05-05T07:45:43.918Z,11
2017-05-05T07:46:43.561Z,11.13
2017-05-05T07:47:43.809Z,11.13
2017-05-05T07:48:43.476Z,11.11
2017-05-05T07:49:43.767Z,11.2
2017-05-05T07:50:43.438Z,11.17
2017-05-05T07:51:43.722Z,11.17
2017-05-05T07:52:43.413Z,11.29
2017-05-05T07:53:43.080Z,11.32
2017-05-05T07:54:43.661Z,11.35
2017-05-05T07:55:43.741Z,11.33
2017-05-05T07:56:43.633Z,11.39
2017-05-05T07:57:43.626Z,11.32
2017-05-05T07:58:43.279Z,11.36
2017-05-05T07:59:43.582Z,11.43
2017-05-05T08:00:43.552Z,11.39
2017-05-05T08:01:43.529Z,11.46
2017-05-05T08:02:43.515Z,11.32
2017-05-05T08:03:43.598Z,11.28
2017-05-05T08:04:43.470Z,11.31
2017-05-05T08:05:43.557Z,11.24
2017-05-05T08:06:43.122Z,11.21
2017-05-05T08:07:43.103Z,11.18
2017-05-05T08:08:43.393Z,11.11
2017-05-05T08:09:43.398Z,11.14
2017-05-05T08:10:43.367Z,11.13
2017-05-05T08:11:43.334Z,11.26
2017-05-05T08:12:43.307Z,11.32
2017-05-05T08:13:43.298Z,11.38
2017-05-05T08:14:43.273Z,11.31
2017-05-05T08:15:43.244Z,11.38
2017-05-05T08:16:42.926Z,11.36
2017-05-05T08:17:43.213Z,11.4
2017-05-05T08:18:43.193Z,11.35
2017-05-05T08:19:42.863Z,11.46
2017-05-05T08:20:42.834Z,11.42
2017-05-05T08:21:42.851Z,11.43
2017-05-05T08:22:42.814Z,11.33
2017-05-05T08:23:42.884Z,11.35
2017-05-05T08:24:42.760Z,11.43
2017-05-05T08:25:42.751Z,11.43
2017-05-05T08:26:43.024Z,11.43
2017-05-05T08:27:42.714Z,11.5
2017-05-05T08:28:43.003Z,11.46
2017-05-05T08:29:42.972Z,11.5
2017-05-05T08:30:42.954Z,11.54
2017-05-05T08:31:43.023Z,11.5
2017-05-05T08:32:42.906Z,11.47
2017-05-05T08:33:42.932Z,11.5
2017-05-05T08:34:42.868Z,11.46
2017-05-05T08:35:42.544Z,11.47
2017-05-05T08:36:42.827Z,11.39
2017-05-05T08:37:42.831Z,11.42
2017-05-05T08:38:42.472Z,11.47
2017-05-05T08:39:42.922Z,11.6
2017-05-05T08:40:42.145Z,11.58
2017-05-05T08:41:42.123Z,11.68
2017-05-05T08:42:42.471Z,11.78
2017-05-05T08:43:42.392Z,11.71
2017-05-05T08:44:42.046Z,11.75
2017-05-05T08:45:42.443Z,11.76
2017-05-05T08:46:42.400Z,11.79
2017-05-05T08:47:42.340Z,11.71
2017-05-05T08:48:41.982Z,11.76
2017-05-05T08:49:42.691Z,11.75
2017-05-05T08:50:42.554Z,11.69
2017-05-05T08:51:42.225Z,11.66
2017-05-05T08:52:41.900Z,11.71
2017-05-05T08:53:42.302Z,11.75
2017-05-05T08:54:42.173Z,11.79
2017-05-05T08:55:42.446Z,11.72
2017-05-05T08:56:42.443Z,11.83
2017-05-05T08:57:42.119Z,11.84
2017-05-05T08:58:42.204Z,11.73
2017-05-05T08:59:42.071Z,11.68
2017-05-05T09:00:42.364Z,11.73
2017-05-05T09:01:42.122Z,11.71
2017-05-05T09:02:42.015Z,11.68
2017-05-05T09:03:42.092Z,11.72
2017-05-05T09:04:42.284Z,11.81
2017-05-05T09:05:42.019Z,11.78
2017-05-05T09:06:42.247Z,11.86
2017-05-05T09:07:42.259Z,11.89
2017-05-05T09:08:41.949Z,11.98
2017-05-05T09:09:41.872Z,11.9
2017-05-05T09:10:41.952Z,11.91
2017-05-05T09:11:41.530Z,11.94
2017-05-05T09:12:42.231Z,11.86
2017-05-05T09:13:42.093Z,11.86
2017-05-05T09:14:42.152Z,11.89
2017-05-05T09:15:42.052Z,11.84
2017-05-05T09:16:42.045Z,11.84
2017-05-05T09:17:42.022Z,11.73
2017-05-05T09:18:42.002Z,11.79
2017-05-05T09:19:41.373Z,11.69
2017-05-05T09:20:41.362Z,11.68
2017-05-05T09:21:41.325Z,11.6
2017-05-05T09:22:41.635Z,11.58
2017-05-05T09:23:41.592Z,11.69
2017-05-05T09:24:41.892Z,11.75
2017-05-05T09:25:41.978Z,11.81
2017-05-05T09:26:41.231Z,11.86
2017-05-05T09:27:41.531Z,11.79
2017-05-05T09:28:41.851Z,11.73
2017-05-05T09:29:41.474Z,11.81
2017-05-05T09:30:41.763Z,11.79
2017-05-05T09:31:41.753Z,11.81
2017-05-05T09:32:41.733Z,11.86
2017-05-05T09:33:41.404Z,11.86
2017-05-05T09:34:41.699Z,11.87
2017-05-05T09:35:41.669Z,11.79
2017-05-05T09:36:41.343Z,11.89
2017-05-05T09:37:41.313Z,11.89
2017-05-05T09:38:40.991Z,11.94
2017-05-05T09:39:41.716Z,11.87
2017-05-05T09:40:41.259Z,11.84
2017-05-05T09:41:40.947Z,11.95
2017-05-05T09:42:40.915Z,11.94
2017-05-05T09:43:41.192Z,11.94
2017-05-05T09:44:41.192Z,11.99
2017-05-05T09:45:41.477Z,11.94
2017-05-05T09:46:41.157Z,11.97
2017-05-05T09:47:41.122Z,11.91
2017-05-05T09:48:41.411Z,11.91
2017-05-05T09:49:41.083Z,11.97
2017-05-05T09:50:41.067Z,11.97
2017-05-05T09:51:41.350Z,11.84
2017-05-05T09:52:41.023Z,11.81
2017-05-05T09:53:41.025Z,11.75
2017-05-05T09:54:40.991Z,11.6
2017-05-05T09:55:41.272Z,11.72
2017-05-05T09:56:40.958Z,11.72
2017-05-05T09:57:41.229Z,11.72
2017-05-05T09:58:41.212Z,11.75
2017-05-05T09:59:40.953Z,11.83
2017-05-05T10:00:41.174Z,11.83
2017-05-05T10:01:41.262Z,11.84
2017-05-05T10:02:41.155Z,11.86
2017-05-05T10:03:40.516Z,11.71
2017-05-05T10:04:40.491Z,11.64
2017-05-05T10:05:41.102Z,11.56
2017-05-05T10:06:41.067Z,11.6
2017-05-05T10:07:41.043Z,11.58
2017-05-05T10:08:40.423Z,11.57
2017-05-05T10:09:40.704Z,11.6
2017-05-05T10:10:40.995Z,11.64
2017-05-05T10:11:40.972Z,11.73
2017-05-05T10:12:40.945Z,11.72
2017-05-05T10:13:40.953Z,11.78
2017-05-05T10:14:40.921Z,11.68
2017-05-05T10:15:41.004Z,11.58
2017-05-05T10:16:40.881Z,11.65
2017-05-05T10:17:40.857Z,11.61
2017-05-05T10:18:40.873Z,11.71
2017-05-05T10:19:40.534Z,11.73
2017-05-05T10:20:40.533Z,11.66
2017-05-05T10:21:40.905Z,11.79
2017-05-05T10:22:40.447Z,11.84
2017-05-05T10:23:40.855Z,11.89
2017-05-05T10:24:40.704Z,11.84
2017-05-05T10:25:40.688Z,11.89
2017-05-05T10:26:40.776Z,11.86
2017-05-05T10:27:40.671Z,11.83
2017-05-05T10:28:40.702Z,11.83
2017-05-05T10:29:40.632Z,11.89
2017-05-05T10:30:40.714Z,12.02
2017-05-05T10:31:40.574Z,11.91
2017-05-05T10:32:40.562Z,11.99
2017-05-05T10:33:40.222Z,11.95
2017-05-05T10:34:40.506Z,11.91
2017-05-05T10:35:40.500Z,11.9
2017-05-05T10:36:40.583Z,11.94
2017-05-05T10:37:40.463Z,11.95
2017-05-05T10:38:40.450Z,11.99
2017-05-05T10:39:40.515Z,11.98
2017-05-05T10:40:40.177Z,12.02
2017-05-05T10:41:40.082Z,11.94
2017-05-05T10:42:40.101Z,11.91
2017-05-05T10:43:40.335Z,11.94
2017-05-05T10:44:40.004Z,11.91
2017-05-05T10:45:40.304Z,11.97
2017-05-05T10:46:40.367Z,11.91
2017-05-05T10:47:40.264Z,11.9
2017-05-05T10:48:40.252Z,11.95
2017-05-05T10:49:39.911Z,11.99
2017-05-05T10:50:39.903Z,12.05
2017-05-05T10:51:39.863Z,12.05
2017-05-05T10:52:39.856Z,12.02
2017-05-05T10:53:40.174Z,12.12
2017-05-05T10:54:40.187Z,12.13
2017-05-05T10:55:39.793Z,12.1
2017-05-05T10:56:39.475Z,12.16
2017-05-05T10:57:39.773Z,12.2
2017-05-05T10:58:39.743Z,12.16
2017-05-05T10:59:40.033Z,12.17
2017-05-05T11:00:40.020Z,12.15
2017-05-05T11:01:39.982Z,12.21
2017-05-05T11:02:40.061Z,12.2
2017-05-05T11:03:39.943Z,12.32
2017-05-05T11:04:39.923Z,12.48
2017-05-05T11:05:39.911Z,12.48
2017-05-05T11:06:39.894Z,12.6
2017-05-05T11:07:39.882Z,12.85
2017-05-05T11:08:39.872Z,13.08
2017-05-05T11:09:39.215Z,13.11
2017-05-05T11:10:39.204Z,13.21
2017-05-05T11:11:39.796Z,13.16
2017-05-05T11:12:39.471Z,13.18
2017-05-05T11:13:39.462Z,13.25
2017-05-05T11:14:39.762Z,13.23
2017-05-05T11:15:39.733Z,13.21
2017-05-05T11:16:39.412Z,13.23
2017-05-05T11:17:39.390Z,13.31
2017-05-05T11:18:39.666Z,13.4
2017-05-05T11:19:39.035Z,13.37
2017-05-05T11:20:39.638Z,13.25
2017-05-05T11:21:38.995Z,13.35
2017-05-05T11:22:38.982Z,13.4
2017-05-05T11:23:38.971Z,13.41
2017-05-05T11:24:39.574Z,13.42
2017-05-05T11:25:39.232Z,13.28
2017-05-05T11:26:39.536Z,13.07
2017-05-05T11:27:39.193Z,13.03
2017-05-05T11:28:39.203Z,12.98
2017-05-05T11:29:39.166Z,12.83
2017-05-05T11:30:39.453Z,12.89
2017-05-05T11:31:39.434Z,12.79
2017-05-05T11:32:39.117Z,12.9
2017-05-05T11:33:39.103Z,12.83
2017-05-05T11:34:39.381Z,12.9
2017-05-05T11:35:39.086Z,12.86
2017-05-05T11:36:39.047Z,13
2017-05-05T11:37:38.703Z,12.92
2017-05-05T11:38:38.690Z,12.85
2017-05-05T11:39:38.684Z,12.85
2017-05-05T11:40:39.268Z,12.88
2017-05-05T11:41:38.957Z,12.9
2017-05-05T11:42:38.935Z,12.83
2017-05-05T11:43:39.339Z,12.79
2017-05-05T11:44:38.887Z,12.76
2017-05-05T11:45:39.264Z,12.74
2017-05-05T11:46:39.165Z,12.9
2017-05-05T11:47:39.147Z,12.76
2017-05-05T11:48:39.119Z,12.86
2017-05-05T11:49:38.585Z,12.86
2017-05-05T11:50:39.073Z,12.97
2017-05-05T11:51:38.592Z,12.97
2017-05-05T11:52:38.753Z,12.98
2017-05-05T11:53:38.853Z,13
2017-05-05T11:54:39.003Z,13.1
2017-05-05T11:55:38.823Z,13.04
2017-05-05T11:56:38.663Z,13.03
2017-05-05T11:57:38.664Z,13.1
2017-05-05T11:58:39.028Z,12.98
2017-05-05T11:59:38.322Z,12.85
2017-05-05T12:00:38.707Z,12.86
2017-05-05T12:01:38.603Z,12.94
2017-05-05T12:02:38.980Z,12.94
2017-05-05T12:03:38.952Z,13.03
2017-05-05T12:04:38.891Z,12.98
2017-05-05T12:05:38.917Z,13
2017-05-05T12:06:38.787Z,12.98
2017-05-05T12:07:38.893Z,12.96
2017-05-05T12:08:38.756Z,12.83
2017-05-05T12:09:38.736Z,12.73
2017-05-05T12:10:38.721Z,12.73
2017-05-05T12:11:38.760Z,12.68
2017-05-05T12:12:38.766Z,12.81
2017-05-05T12:13:38.667Z,13.01
2017-05-05T12:14:38.655Z,13.14
2017-05-05T12:15:38.759Z,13.11
2017-05-05T12:16:38.366Z,13.23
2017-05-05T12:17:38.599Z,13.31
2017-05-05T12:18:38.576Z,13.45
2017-05-05T12:19:38.736Z,13.44
2017-05-05T12:20:38.553Z,13.52
2017-05-05T12:21:38.539Z,13.47
2017-05-05T12:22:38.587Z,13.47
2017-05-05T12:23:38.167Z,13.62
2017-05-05T12:24:38.471Z,13.65
2017-05-05T12:25:38.145Z,13.63
2017-05-05T12:26:38.118Z,13.56
2017-05-05T12:27:38.094Z,13.59
2017-05-05T12:28:38.384Z,13.44
2017-05-05T12:29:38.067Z,13.44
2017-05-05T12:30:38.025Z,13.23
2017-05-05T12:31:38.341Z,13.38
2017-05-05T12:32:38.063Z,13.35
2017-05-05T12:33:38.299Z,13.47
2017-05-05T12:34:37.963Z,13.33
2017-05-05T12:35:37.933Z,13.35
2017-05-05T12:36:37.947Z,13.33
2017-05-05T12:37:38.223Z,13.37
2017-05-05T12:38:38.254Z,13.4
2017-05-05T12:39:37.891Z,13.45
2017-05-05T12:40:37.872Z,13.44
2017-05-05T12:41:38.149Z,13.53
2017-05-05T12:42:38.147Z,13.56
2017-05-05T12:43:38.101Z,13.49
2017-05-05T12:44:38.105Z,13.48
2017-05-05T12:45:38.081Z,13.52
2017-05-05T12:46:38.065Z,13.55
2017-05-05T12:47:37.425Z,13.57
2017-05-05T12:48:37.707Z,13.55
2017-05-05T12:49:37.389Z,13.28
2017-05-05T12:50:37.682Z,13.22
2017-05-05T12:51:37.653Z,13.35
2017-05-05T12:52:37.326Z,13.49
2017-05-05T12:53:37.625Z,13.48
2017-05-05T12:54:37.903Z,13.55
2017-05-05T12:55:37.906Z,13.56
2017-05-05T12:56:37.893Z,13.55